Time,TemperatureF,DewpointF,PressureIn,WindDirection,WindDirectionDegrees,WindSpeedMPH,WindSpeedGustMPH,Humidity,HourlyPrecipIn,Conditions,Clouds,dailyrainin,SoftwareType,DateUTC
2013-04-07 00:00:00,62.8,58.2,30.11,NE,35,5.0,7.0,85,0.00,FEW,FEW,0.00,WeatherDisplay:10.37,2013-04-07 04:00:00,
2013-04-07 00:05:00,62.6,58.0,30.11,NNE,27,3.0,7.0,85,0.00,SCT,SCT,0.00,WeatherDisplay:10.37,2013-04-07 04:05:00,
2013-04-07 00:10:00,62.6,58.0,30.11,NNE,31,3.0,7.0,85,0.00,SCT,SCT,0.00,WeatherDisplay:10.37,2013-04-07 04:10:00,
2013-04-07 00:20:00,62.3,58.1,30.10,North,8,7.0,9.0,86,0.00,SCT,SCT,0.00,WeatherDisplay:10.37,2013-04-07 04:20:00,
2013-04-07 00:30:00,62.2,58.0,30.10,NNE,19,6.0,8.0,86,0.00,SCT,SCT,0.00,WeatherDisplay:10.37,2013-04-07 04:30:00,
2013-04-07 00:40:00,62.2,58.3,30.10,NNE,27,3.0,6.0,87,0.00,SCT,SCT,0.00,WeatherDisplay:10.37,2013-04-07 04:40:00,
2013-04-07 00:50:00,62.1,58.2,30.09,North,7,5.0,7.0,87,0.00,SCT,SCT,0.00,WeatherDisplay:10.37,2013-04-07 04:50:00,
2013-04-07 01:00:00,62.1,58.1,30.09,NNE,25,2.0,7.0,87,0.00,SCT,SCT,0.00,WeatherDisplay:10.37,2013-04-07 05:00:00,
2013-04-07 01:05:00,62.1,58.1,30.09,NNE,23,2.0,5.0,87,0.00,FEW,FEW,0.00,WeatherDisplay:10.37,2013-04-07 05:05:00,
2013-04-07 01:10:00,62.1,58.1,30.09,North,355,1.0,6.0,87,0.00,FEW,FEW,0.00,WeatherDisplay:10.37,2013-04-07 05:10:00,
2013-04-07 01:20:00,61.9,58.0,30.09,North,359,1.0,6.0,87,0.00,FEW,FEW,0.00,WeatherDisplay:10.37,2013-04-07 05:20:00,
2013-04-07 01:25:00,61.9,58.0,30.09,North,359,1.0,3.0,87,0.00,FEW,FEW,0.00,WeatherDisplay:10.37,2013-04-07 05:25:00,
2013-04-07 01:35:00,61.8,58.2,30.09,North,6,1.0,3.0,88,0.00,FEW,FEW,0.00,WeatherDisplay:10.37,2013-04-07 05:35:00,
2013-04-07 01:40:00,61.7,58.1,30.09,North,355,3.0,5.0,88,0.00,FEW,FEW,0.00,WeatherDisplay:10.37,2013-04-07 05:40:00,
2013-04-07 01:45:00,61.7,58.1,30.09,North,358,3.0,5.0,88,0.00,FEW,FEW,0.00,WeatherDisplay:10.37,2013-04-07 05:45:00,
2013-04-07 01:50:00,61.6,58.0,30.09,North,353,1.0,5.0,88,0.00,FEW,FEW,0.00,WeatherDisplay:10.37,2013-04-07 05:50:00,
2013-04-07 01:55:00,61.5,58.2,30.09,North,358,2.0,5.0,89,0.00,FEW,FEW,0.00,WeatherDisplay:10.37,2013-04-07 05:55:00,
2013-04-07 02:00:00,61.5,58.2,30.08,North,354,2.0,5.0,89,0.00,FEW,FEW,0.00,WeatherDisplay:10.37,2013-04-07 06:00:00,
2013-04-07 02:05:00,61.5,58.2,30.08,North,356,2.0,5.0,89,0.00,SCT,SCT,0.00,WeatherDisplay:10.37,2013-04-07 06:05:00,
2013-04-07 02:10:00,61.5,58.2,30.08,North,11,2.0,6.0,89,0.00,SCT,SCT,0.00,WeatherDisplay:10.37,2013-04-07 06:10:00,
2013-04-07 02:20:00,61.3,58.1,30.06,NNE,18,2.0,6.0,89,0.00,SCT,SCT,0.00,WeatherDisplay:10.37,2013-04-07 06:20:00,
2013-04-07 02:30:00,61.2,57.9,30.06,NNE,22,3.0,6.0,89,0.00,SCT,SCT,0.00,WeatherDisplay:10.37,2013-04-07 06:30:00,
2013-04-07 02:40:00,60.8,57.6,30.04,NE,49,2.0,5.0,89,0.00,SCT,SCT,0.00,WeatherDisplay:10.37,2013-04-07 06:40:00,
2013-04-07 02:50:00,60.5,57.2,30.04,NE,50,2.0,2.0,89,0.00,SCT,SCT,0.00,WeatherDisplay:10.37,2013-04-07 06:50:00,
2013-04-07 02:55:00,60.4,57.2,30.04,NE,48,2.0,2.0,89,0.00,SCT,SCT,0.00,WeatherDisplay:10.37,2013-04-07 06:55:00,
2013-04-07 03:05:00,60.1,57.1,30.04,ENE,70,1.0,2.0,90,0.00,FEW,FEW,0.00,WeatherDisplay:10.37,2013-04-07 07:05:00,
2013-04-07 03:10:00,60.1,57.1,30.04,NE,46,2.0,2.0,90,0.00,FEW,FEW,0.00,WeatherDisplay:10.37,2013-04-07 07:10:00,
2013-04-07 03:15:00,60.1,57.4,30.05,NNW,339,2.0,3.0,91,0.00,FEW,FEW,0.00,WeatherDisplay:10.37,2013-04-07 07:15:00,
2013-04-07 03:20:00,60.1,57.4,30.05,NW,326,2.0,2.0,91,0.00,FEW,FEW,0.00,WeatherDisplay:10.37,2013-04-07 07:20:00,
2013-04-07 03:30:00,60.1,57.4,30.04,NW,315,0.0,1.0,91,0.00,FEW,FEW,0.00,WeatherDisplay:10.37,2013-04-07 07:30:00,
2013-04-07 03:40:00,60.1,57.7,30.04,North,355,1.0,2.0,92,0.00,FEW,FEW,0.00,WeatherDisplay:10.37,2013-04-07 07:40:00,
2013-04-07 03:45:00,60.0,57.4,30.04,NNE,23,1.0,2.0,91,0.00,FEW,FEW,0.00,WeatherDisplay:10.37,2013-04-07 07:45:00,
2013-04-07 03:50:00,59.7,56.8,30.03,NE,40,1.0,2.0,90,0.00,FEW,FEW,0.00,WeatherDisplay:10.37,2013-04-07 07:50:00,
2013-04-07 04:00:00,59.9,57.3,30.03,NNE,31,2.0,4.0,91,0.00,FEW,FEW,0.00,WeatherDisplay:10.37,2013-04-07 08:00:00,
2013-04-07 04:06:00,60.1,57.7,30.04,NNE,25,2.0,5.0,92,0.00,SCT,SCT,0.00,WeatherDisplay:10.37,2013-04-07 08:06:00,
2013-04-07 04:11:00,60.1,57.7,30.04,NNE,16,3.0,5.0,92,0.00,SCT,SCT,0.00,WeatherDisplay:10.37,2013-04-07 08:11:00,
2013-04-07 04:20:00,60.1,57.7,30.05,North,4,1.0,3.0,92,0.00,SCT,SCT,0.00,WeatherDisplay:10.37,2013-04-07 08:20:00,
2013-04-07 04:25:00,60.1,57.7,30.05,NNE,21,1.0,3.0,92,0.00,SCT,SCT,0.00,WeatherDisplay:10.37,2013-04-07 08:25:00,
2013-04-07 04:30:00,60.1,57.7,30.05,NNE,29,1.0,3.0,92,0.00,SCT,SCT,0.00,WeatherDisplay:10.37,2013-04-07 08:30:00,
2013-04-07 04:40:00,60.0,57.3,30.05,NE,36,2.0,2.0,91,0.00,SCT,SCT,0.00,WeatherDisplay:10.37,2013-04-07 08:40:00,
2013-04-07 04:45:00,59.9,57.6,30.05,NNE,33,1.0,3.0,92,0.00,SCT,SCT,0.00,WeatherDisplay:10.37,2013-04-07 08:45:00,
2013-04-07 04:50:00,60.0,58.0,30.05,NNE,16,3.0,5.0,93,0.00,SCT,SCT,0.00,WeatherDisplay:10.37,2013-04-07 08:50:00,
2013-04-07 05:00:00,60.1,58.1,30.05,North,10,3.0,6.0,93,0.00,SCT,SCT,0.00,WeatherDisplay:10.37,2013-04-07 09:00:00,
2013-04-07 05:05:00,60.1,58.0,30.05,NNE,16,5.0,5.0,93,0.00,BKN,BKN,0.00,WeatherDisplay:10.37,2013-04-07 09:05:00,
2013-04-07 05:10:00,60.1,57.7,30.05,NNE,22,2.0,5.0,92,0.00,BKN,BKN,0.00,WeatherDisplay:10.37,2013-04-07 09:10:00,
2013-04-07 05:15:00,60.1,58.0,30.05,NNE,19,3.0,6.0,93,0.00,BKN,BKN,0.00,WeatherDisplay:10.37,2013-04-07 09:15:00,
2013-04-07 05:21:00,60.1,58.0,30.05,NNE,14,5.0,6.0,93,0.00,BKN,BKN,0.00,WeatherDisplay:10.37,2013-04-07 09:21:00,
2013-04-07 05:30:00,60.0,58.0,30.05,NNE,13,3.0,6.0,93,0.00,BKN,BKN,0.00,WeatherDisplay:10.37,2013-04-07 09:30:00,
2013-04-07 05:40:00,59.9,57.9,30.06,NNE,13,3.0,5.0,93,0.00,BKN,BKN,0.00,WeatherDisplay:10.37,2013-04-07 09:40:00,
2013-04-07 05:45:00,59.9,57.9,30.06,NNE,14,3.0,5.0,93,0.00,BKN,BKN,0.00,WeatherDisplay:10.37,2013-04-07 09:45:00,
2013-04-07 05:55:00,59.9,57.9,30.07,North,354,1.0,3.0,93,0.00,BKN,BKN,0.00,WeatherDisplay:10.37,2013-04-07 09:55:00,
2013-04-07 06:00:00,59.9,57.9,30.07,North,360,5.0,6.0,93,0.00,BKN,BKN,0.00,WeatherDisplay:10.37,2013-04-07 10:00:00,
2013-04-07 06:05:00,59.9,57.9,30.07,North,3,1.0,6.0,93,0.00,BKN,BKN,0.00,WeatherDisplay:10.37,2013-04-07 10:05:00,
2013-04-07 06:10:00,59.9,57.9,30.07,North,2,2.0,5.0,93,0.00,BKN,BKN,0.00,WeatherDisplay:10.37,2013-04-07 10:10:00,
2013-04-07 06:20:00,59.9,57.9,30.07,North,10,3.0,6.0,93,0.00,BKN,BKN,0.00,WeatherDisplay:10.37,2013-04-07 10:20:00,
2013-04-07 06:25:00,59.9,57.9,30.08,North,9,2.0,6.0,93,0.00,BKN,BKN,0.00,WeatherDisplay:10.37,2013-04-07 10:25:00,
2013-04-07 06:35:00,59.7,57.7,30.08,North,6,5.0,6.0,93,0.00,BKN,BKN,0.00,WeatherDisplay:10.37,2013-04-07 10:35:00,
2013-04-07 06:40:00,59.7,57.7,30.08,North,9,1.0,4.0,93,0.00,BKN,BKN,0.00,WeatherDisplay:10.37,2013-04-07 10:40:00,
2013-04-07 06:50:00,59.7,57.7,30.08,NNE,17,2.0,5.0,93,0.00,BKN,BKN,0.00,WeatherDisplay:10.37,2013-04-07 10:50:00,
2013-04-07 07:00:00,59.5,57.4,30.08,NNE,23,2.0,5.0,93,0.00,BKN,BKN,0.00,WeatherDisplay:10.37,2013-04-07 11:00:00,
2013-04-07 07:05:00,59.4,57.0,30.09,NE,36,2.0,4.0,92,0.00,BKN,BKN,0.00,WeatherDisplay:10.37,2013-04-07 11:05:00,
2013-04-07 07:10:00,59.4,57.3,30.09,NNE,31,2.0,4.0,93,0.00,BKN,BKN,0.00,WeatherDisplay:10.37,2013-04-07 11:10:00,
2013-04-07 07:20:00,59.4,57.3,30.09,NNE,29,2.0,5.0,93,0.00,BKN,BKN,0.00,WeatherDisplay:10.37,2013-04-07 11:20:00,
2013-04-07 07:30:00,59.4,57.4,30.09,NNE,19,3.0,5.0,93,0.00,BKN,BKN,0.00,WeatherDisplay:10.37,2013-04-07 11:30:00,
2013-04-07 07:40:00,59.7,57.7,30.10,NNE,27,2.0,5.0,93,0.00,BKN,BKN,0.00,WeatherDisplay:10.37,2013-04-07 11:40:00,
2013-04-07 07:50:00,60.1,57.7,30.10,NNE,16,3.0,5.0,92,0.00,BKN,BKN,0.00,WeatherDisplay:10.37,2013-04-07 11:50:00,
2013-04-07 08:00:00,60.8,57.8,30.11,NNE,14,3.0,7.0,90,0.00,BKN,BKN,0.00,WeatherDisplay:10.37,2013-04-07 12:00:00,
2013-04-07 08:05:00,61.3,58.4,30.11,NNE,22,2.0,6.0,90,0.00,BKN,BKN,0.00,WeatherDisplay:10.37,2013-04-07 12:05:00,
2013-04-07 08:15:00,62.3,59.0,30.11,NNE,19,2.0,5.0,89,0.00,BKN,BKN,0.00,WeatherDisplay:10.37,2013-04-07 12:15:00,
2013-04-07 08:20:00,63.0,59.3,30.11,NNE,29,2.0,5.0,88,0.00,BKN,BKN,0.00,WeatherDisplay:10.37,2013-04-07 12:20:00,
2013-04-07 08:25:00,63.6,59.3,30.11,NNE,32,2.0,4.0,86,0.00,BKN,BKN,0.00,WeatherDisplay:10.37,2013-04-07 12:25:00,
2013-04-07 08:30:00,64.1,59.5,30.11,NE,36,3.0,5.0,85,0.00,BKN,BKN,0.00,WeatherDisplay:10.37,2013-04-07 12:30:00,
2013-04-07 08:40:00,65.9,61.2,30.12,NE,47,1.0,3.0,85,0.00,BKN,BKN,0.00,WeatherDisplay:10.37,2013-04-07 12:40:00,
2013-04-07 08:51:00,67.3,61.3,30.12,NE,49,3.0,5.0,81,0.00,BKN,BKN,0.00,WeatherDisplay:10.37,2013-04-07 12:51:00,
2013-04-07 09:00:00,68.3,61.5,30.13,NE,54,3.0,6.0,79,0.00,BKN,BKN,0.00,WeatherDisplay:10.37,2013-04-07 13:00:00,
2013-04-07 09:05:00,69.0,61.1,30.13,ENE,59,5.0,7.0,76,0.00,CLR,CLR,0.00,WeatherDisplay:10.37,2013-04-07 13:05:00,
2013-04-07 09:15:00,70.0,60.6,30.13,East,85,5.0,8.0,72,0.00,CLR,CLR,0.00,WeatherDisplay:10.37,2013-04-07 13:15:00,
2013-04-07 09:20:00,70.2,60.7,30.13,ENE,77,6.0,9.0,72,0.00,CLR,CLR,0.00,WeatherDisplay:10.37,2013-04-07 13:20:00,
2013-04-07 09:30:00,71.2,60.1,30.13,ENE,76,7.0,10.0,68,0.00,CLR,CLR,0.00,WeatherDisplay:10.37,2013-04-07 13:30:00,
2013-04-07 09:40:00,71.6,59.6,30.13,East,85,7.0,8.0,66,0.00,CLR,CLR,0.00,WeatherDisplay:10.37,2013-04-07 13:40:00,
2013-04-07 09:50:00,72.1,59.3,30.13,ENE,75,6.0,9.0,64,0.00,CLR,CLR,0.00,WeatherDisplay:10.37,2013-04-07 13:50:00,
2013-04-07 09:55:00,72.1,59.7,30.13,ENE,68,6.0,9.0,65,0.00,CLR,CLR,0.00,WeatherDisplay:10.37,2013-04-07 13:55:00,
2013-04-07 10:00:00,72.2,60.2,30.13,ENE,71,5.0,9.0,66,0.00,CLR,CLR,0.00,WeatherDisplay:10.37,2013-04-07 14:00:00,
2013-04-07 10:05:00,72.7,58.9,30.14,East,81,8.0,12.0,62,0.00,BKN,BKN,0.00,WeatherDisplay:10.37,2013-04-07 14:05:00,
2013-04-07 10:10:00,73.0,59.2,30.14,East,87,6.0,9.0,62,0.00,BKN,BKN,0.00,WeatherDisplay:10.37,2013-04-07 14:10:00,
2013-04-07 10:20:00,73.8,59.0,30.14,East,88,9.0,13.0,60,0.00,BKN,BKN,0.00,WeatherDisplay:10.37,2013-04-07 14:20:00,
2013-04-07 10:30:00,74.7,59.4,30.14,East,84,6.0,9.0,59,0.00,BKN,BKN,0.00,WeatherDisplay:10.37,2013-04-07 14:30:00,
2013-04-07 10:40:00,75.4,58.6,30.14,ESE,102,7.0,9.0,56,0.00,BKN,BKN,0.00,WeatherDisplay:10.37,2013-04-07 14:40:00,
2013-04-07 10:50:00,75.2,58.4,30.14,ESE,102,6.0,10.0,56,0.00,BKN,BKN,0.00,WeatherDisplay:10.37,2013-04-07 14:50:00,
2013-04-07 10:55:00,74.8,57.6,30.14,ESE,114,9.0,12.0,55,0.00,BKN,BKN,0.00,WeatherDisplay:10.37,2013-04-07 14:55:00,
2013-04-07 11:00:00,74.9,58.2,30.14,ESE,102,9.0,12.0,56,0.00,BKN,BKN,0.00,WeatherDisplay:10.37,2013-04-07 15:00:00,
2013-04-07 11:05:00,75.1,58.3,30.14,East,85,6.0,10.0,56,0.00,BKN,BKN,0.00,WeatherDisplay:10.37,2013-04-07 15:05:00,
2013-04-07 11:10:00,76.2,58.3,30.14,East,85,7.0,10.0,54,0.00,BKN,BKN,0.00,WeatherDisplay:10.37,2013-04-07 15:10:00,
2013-04-07 11:20:00,75.6,57.7,30.14,ESE,106,5.0,9.0,54,0.00,BKN,BKN,0.00,WeatherDisplay:10.37,2013-04-07 15:20:00,
2013-04-07 11:30:00,77.2,57.7,30.14,ESE,115,6.0,8.0,51,0.00,BKN,BKN,0.00,WeatherDisplay:10.37,2013-04-07 15:30:00,
2013-04-07 11:35:00,77.4,57.8,30.14,ESE,106,6.0,8.0,51,0.00,BKN,BKN,0.00,WeatherDisplay:10.37,2013-04-07 15:35:00,
2013-04-07 11:45:00,77.3,57.8,30.14,ESE,105,6.0,8.0,51,0.00,BKN,BKN,0.00,WeatherDisplay:10.37,2013-04-07 15:45:00,
2013-04-07 11:50:00,77.4,57.3,30.14,ESE,119,8.0,10.0,50,0.00,BKN,BKN,0.00,WeatherDisplay:10.37,2013-04-07 15:50:00,
2013-04-07 11:55:00,77.7,58.7,30.14,SE,133,5.0,9.0,52,0.00,BKN,BKN,0.00,WeatherDisplay:10.37,2013-04-07 15:55:00,
2013-04-07 12:00:00,77.6,56.9,30.14,ESE,115,6.0,7.0,49,0.00,BKN,BKN,0.00,WeatherDisplay:10.37,2013-04-07 16:00:00,
2013-04-07 12:05:00,77.1,57.6,30.14,ESE,104,3.0,7.0,51,0.00,BKN,BKN,0.00,WeatherDisplay:10.37,2013-04-07 16:05:00,
2013-04-07 12:15:00,78.6,57.3,30.14,East,100,1.0,8.0,48,0.00,BKN,BKN,0.00,WeatherDisplay:10.37,2013-04-07 16:15:00,
2013-04-07 12:25:00,77.6,56.9,30.14,ESE,117,3.0,7.0,49,0.00,BKN,BKN,0.00,WeatherDisplay:10.37,2013-04-07 16:25:00,
2013-04-07 12:30:00,77.2,57.1,30.14,ESE,107,1.0,5.0,50,0.00,BKN,BKN,0.00,WeatherDisplay:10.37,2013-04-07 16:30:00,
2013-04-07 12:35:00,78.1,56.8,30.14,East,80,5.0,6.0,48,0.00,BKN,BKN,0.00,WeatherDisplay:10.37,2013-04-07 16:35:00,
2013-04-07 12:40:00,78.0,56.7,30.14,ESE,121,2.0,7.0,48,0.00,BKN,BKN,0.00,WeatherDisplay:10.37,2013-04-07 16:40:00,
2013-04-07 12:50:00,78.4,56.5,30.13,SE,127,6.0,6.0,47,0.00,BKN,BKN,0.00,WeatherDisplay:10.37,2013-04-07 16:50:00,
2013-04-07 12:55:00,77.6,55.8,30.13,East,100,3.0,6.0,47,0.00,BKN,BKN,0.00,WeatherDisplay:10.37,2013-04-07 16:55:00,
2013-04-07 13:00:00,77.0,55.2,30.13,ENE,68,6.0,8.0,47,0.00,BKN,BKN,0.00,WeatherDisplay:10.37,2013-04-07 17:00:00,
2013-04-07 13:10:00,76.4,56.4,30.12,NE,47,1.0,7.0,50,0.00,BKN,BKN,0.00,WeatherDisplay:10.37,2013-04-07 17:10:00,
2013-04-07 13:15:00,78.3,57.5,30.11,ENE,60,2.0,8.0,49,0.00,BKN,BKN,0.00,WeatherDisplay:10.37,2013-04-07 17:15:00,
2013-04-07 13:20:00,78.2,56.9,30.11,East,80,5.0,8.0,48,0.00,BKN,BKN,0.00,WeatherDisplay:10.37,2013-04-07 17:20:00,
2013-04-07 13:30:00,77.3,56.1,30.11,ESE,103,7.0,12.0,48,0.00,BKN,BKN,0.00,WeatherDisplay:10.37,2013-04-07 17:30:00,
2013-04-07 13:40:00,78.8,56.9,30.11,East,80,5.0,6.0,47,0.00,BKN,BKN,0.00,WeatherDisplay:10.37,2013-04-07 17:40:00,
2013-04-07 13:45:00,78.1,56.8,30.11,ENE,78,5.0,9.0,48,0.00,BKN,BKN,0.00,WeatherDisplay:10.37,2013-04-07 17:45:00,
2013-04-07 13:50:00,77.7,56.5,30.11,ENE,78,3.0,6.0,48,0.00,BKN,BKN,0.00,WeatherDisplay:10.37,2013-04-07 17:50:00,
2013-04-07 14:00:00,77.3,57.2,30.10,East,83,7.0,8.0,50,0.00,BKN,BKN,0.00,WeatherDisplay:10.37,2013-04-07 18:00:00,
2013-04-07 14:10:00,76.9,57.4,30.10,NE,55,5.0,10.0,51,0.00,BKN,BKN,0.00,WeatherDisplay:10.37,2013-04-07 18:10:00,
2013-04-07 14:20:00,76.6,58.1,30.09,NE,39,3.0,8.0,53,0.00,BKN,BKN,0.00,WeatherDisplay:10.37,2013-04-07 18:20:00,
2013-04-07 14:25:00,77.1,58.1,30.09,NE,48,7.0,7.0,52,0.00,BKN,BKN,0.00,WeatherDisplay:10.37,2013-04-07 18:25:00,
2013-04-07 14:35:00,77.0,57.5,30.09,ENE,72,6.0,12.0,51,0.00,BKN,BKN,0.00,WeatherDisplay:10.37,2013-04-07 18:35:00,
2013-04-07 14:40:00,78.0,58.4,30.09,East,93,5.0,9.0,51,0.00,BKN,BKN,0.00,WeatherDisplay:10.37,2013-04-07 18:40:00,
2013-04-07 14:50:00,79.2,57.9,30.09,ENE,72,3.0,9.0,48,0.00,BKN,BKN,0.00,WeatherDisplay:10.37,2013-04-07 18:50:00,
2013-04-07 15:00:00,79.8,57.8,30.08,ENE,59,6.0,9.0,47,0.00,BKN,BKN,0.00,WeatherDisplay:10.37,2013-04-07 19:00:00,
2013-04-07 15:05:00,79.5,57.5,30.08,NE,53,5.0,9.0,47,0.00,BKN,BKN,0.00,WeatherDisplay:10.37,2013-04-07 19:05:00,
2013-04-07 15:10:00,78.8,56.9,30.08,ENE,62,5.0,9.0,47,0.00,BKN,BKN,0.00,WeatherDisplay:10.37,2013-04-07 19:10:00,
2013-04-07 15:20:00,78.6,56.7,30.08,NE,55,6.0,9.0,47,0.00,BKN,BKN,0.00,WeatherDisplay:10.37,2013-04-07 19:20:00,
2013-04-07 15:30:00,78.7,57.4,30.07,East,83,5.0,6.0,48,0.00,BKN,BKN,0.00,WeatherDisplay:10.37,2013-04-07 19:30:00,
2013-04-07 15:40:00,78.3,57.5,30.07,East,99,7.0,12.0,49,0.00,BKN,BKN,0.00,WeatherDisplay:10.37,2013-04-07 19:40:00,
2013-04-07 15:50:00,79.5,57.5,30.07,ENE,69,9.0,13.0,47,0.00,BKN,BKN,0.00,WeatherDisplay:10.37,2013-04-07 19:50:00,
2013-04-07 16:00:00,80.3,57.7,30.07,ENE,71,7.0,12.0,46,0.00,BKN,BKN,0.00,WeatherDisplay:10.37,2013-04-07 20:00:00,
2013-04-07 16:05:00,80.6,57.3,30.06,East,86,5.0,10.0,45,0.00,SCT,SCT,0.00,WeatherDisplay:10.37,2013-04-07 20:05:00,
2013-04-07 16:11:00,80.6,57.9,30.06,East,98,9.0,14.0,46,0.00,SCT,SCT,0.00,WeatherDisplay:10.37,2013-04-07 20:11:00,
2013-04-07 16:20:00,80.3,58.2,30.06,ESE,103,6.0,8.0,47,0.00,SCT,SCT,0.00,WeatherDisplay:10.37,2013-04-07 20:20:00,
2013-04-07 16:30:00,79.0,57.0,30.06,ENE,70,7.0,10.0,47,0.00,SCT,SCT,0.00,WeatherDisplay:10.37,2013-04-07 20:30:00,
2013-04-07 16:40:00,78.1,57.9,30.06,East,95,6.0,10.0,50,0.00,SCT,SCT,0.00,WeatherDisplay:10.37,2013-04-07 20:40:00,
2013-04-07 16:50:00,78.4,58.8,30.06,East,96,3.0,7.0,51,0.00,SCT,SCT,0.00,WeatherDisplay:10.37,2013-04-07 20:50:00,
2013-04-07 17:00:00,77.8,58.8,30.06,ENE,72,6.0,12.0,52,0.00,SCT,SCT,0.00,WeatherDisplay:10.37,2013-04-07 21:00:00,
2013-04-07 17:05:00,78.5,58.3,30.06,ENE,73,6.0,10.0,50,0.00,BKN,BKN,0.00,WeatherDisplay:10.37,2013-04-07 21:05:00,
2013-04-07 17:10:00,78.1,57.9,30.06,East,90,3.0,8.0,50,0.00,BKN,BKN,0.00,WeatherDisplay:10.37,2013-04-07 21:10:00,
2013-04-07 17:20:00,78.0,58.4,30.06,East,91,6.0,9.0,51,0.00,BKN,BKN,0.00,WeatherDisplay:10.37,2013-04-07 21:20:00,
2013-04-07 17:30:00,77.1,58.1,30.06,ENE,77,8.0,10.0,52,0.00,BKN,BKN,0.00,WeatherDisplay:10.37,2013-04-07 21:30:00,
2013-04-07 17:40:00,76.6,57.7,30.06,East,79,8.0,10.0,52,0.00,BKN,BKN,0.00,WeatherDisplay:10.37,2013-04-07 21:40:00,
2013-04-07 17:50:00,77.1,58.1,30.06,ENE,65,9.0,10.0,52,0.00,BKN,BKN,0.00,WeatherDisplay:10.37,2013-04-07 21:50:00,
2013-04-07 18:00:00,76.5,58.6,30.06,East,90,6.0,11.0,54,0.00,BKN,BKN,0.00,WeatherDisplay:10.37,2013-04-07 22:00:00,
2013-04-07 18:10:00,76.9,58.4,30.06,East,98,8.0,10.0,53,0.00,FEW,FEW,0.00,WeatherDisplay:10.37,2013-04-07 22:10:00,
2013-04-07 18:15:00,77.2,58.7,30.06,East,95,8.0,14.0,53,0.00,FEW,FEW,0.00,WeatherDisplay:10.37,2013-04-07 22:15:00,
2013-04-07 18:20:00,76.7,58.8,30.06,East,84,8.0,14.0,54,0.00,FEW,FEW,0.00,WeatherDisplay:10.37,2013-04-07 22:20:00,
2013-04-07 18:30:00,75.3,58.5,30.06,East,87,6.0,12.0,56,0.00,FEW,FEW,0.00,WeatherDisplay:10.37,2013-04-07 22:30:00,
2013-04-07 18:40:00,74.7,58.9,30.06,ENE,65,8.0,12.0,58,0.00,FEW,FEW,0.00,WeatherDisplay:10.37,2013-04-07 22:40:00,
2013-04-07 18:50:00,74.5,59.2,30.06,ENE,66,5.0,9.0,59,0.00,FEW,FEW,0.00,WeatherDisplay:10.37,2013-04-07 22:50:00,
2013-04-07 18:55:00,74.3,59.0,30.06,ENE,62,7.0,10.0,59,0.00,FEW,FEW,0.00,WeatherDisplay:10.37,2013-04-07 22:55:00,
2013-04-07 19:05:00,74.1,59.3,30.06,ENE,71,6.0,10.0,60,0.00,SCT,SCT,0.00,WeatherDisplay:10.37,2013-04-07 23:05:00,
2013-04-07 19:10:00,73.8,59.5,30.06,ENE,73,7.0,13.0,61,0.00,SCT,SCT,0.00,WeatherDisplay:10.37,2013-04-07 23:10:00,
2013-04-07 19:20:00,73.2,59.4,30.06,ENE,70,6.0,12.0,62,0.00,SCT,SCT,0.00,WeatherDisplay:10.37,2013-04-07 23:20:00,
2013-04-07 19:30:00,72.7,59.4,30.06,East,91,7.0,15.0,63,0.00,SCT,SCT,0.00,WeatherDisplay:10.37,2013-04-07 23:30:00,
2013-04-07 19:40:00,72.1,59.3,30.07,East,87,3.0,10.0,64,0.00,SCT,SCT,0.00,WeatherDisplay:10.37,2013-04-07 23:40:00,
2013-04-07 19:50:00,71.6,59.6,30.07,East,87,6.0,11.0,66,0.00,SCT,SCT,0.00,WeatherDisplay:10.37,2013-04-07 23:50:00,
2013-04-07 20:00:00,71.2,59.7,30.07,ENE,76,7.0,14.0,67,0.00,SCT,SCT,0.00,WeatherDisplay:10.37,2013-04-08 00:00:00,
2013-04-07 20:05:00,71.0,59.5,30.07,East,80,6.0,9.0,67,0.00,FEW,FEW,0.00,WeatherDisplay:10.37,2013-04-08 00:05:00,
2013-04-07 20:10:00,70.9,59.8,30.07,East,79,9.0,12.0,68,0.00,FEW,FEW,0.00,WeatherDisplay:10.37,2013-04-08 00:10:00,
2013-04-07 20:20:00,70.5,59.9,30.07,East,81,8.0,10.0,69,0.00,FEW,FEW,0.00,WeatherDisplay:10.37,2013-04-08 00:20:00,
2013-04-07 20:30:00,70.2,59.5,30.07,ENE,76,2.0,6.0,69,0.00,FEW,FEW,0.00,WeatherDisplay:10.37,2013-04-08 00:30:00,
2013-04-07 20:40:00,70.0,59.7,30.08,East,81,6.0,8.0,70,0.00,FEW,FEW,0.00,WeatherDisplay:10.37,2013-04-08 00:40:00,
2013-04-07 20:50:00,69.7,59.5,30.08,East,80,3.0,7.0,70,0.00,FEW,FEW,0.00,WeatherDisplay:10.37,2013-04-08 00:50:00,
2013-04-07 21:00:00,69.4,59.6,30.08,ENE,75,5.0,8.0,71,0.00,FEW,FEW,0.00,WeatherDisplay:10.37,2013-04-08 01:00:00,
2013-04-07 21:05:00,69.4,59.5,30.08,East,80,3.0,6.0,71,0.00,BKN,BKN,0.00,WeatherDisplay:10.37,2013-04-08 01:05:00,
2013-04-07 21:10:00,69.3,59.8,30.08,ENE,75,3.0,7.0,72,0.00,BKN,BKN,0.00,WeatherDisplay:10.37,2013-04-08 01:10:00,
2013-04-07 21:20:00,68.9,59.9,30.09,East,83,5.0,8.0,73,0.00,BKN,BKN,0.00,WeatherDisplay:10.37,2013-04-08 01:20:00,
2013-04-07 21:25:00,68.7,59.7,30.08,East,85,5.0,7.0,73,0.00,BKN,BKN,0.00,WeatherDisplay:10.37,2013-04-08 01:25:00,
2013-04-07 21:35:00,68.5,59.5,30.09,East,80,2.0,5.0,73,0.00,BKN,BKN,0.00,WeatherDisplay:10.37,2013-04-08 01:35:00,
2013-04-07 21:40:00,68.4,59.7,30.09,East,81,3.0,6.0,74,0.00,BKN,BKN,0.00,WeatherDisplay:10.37,2013-04-08 01:40:00,
2013-04-07 21:50:00,68.2,59.6,30.10,East,88,3.0,5.0,74,0.00,BKN,BKN,0.00,WeatherDisplay:10.37,2013-04-08 01:50:00,
2013-04-07 22:00:00,67.8,59.2,30.10,ENE,78,1.0,4.0,74,0.00,BKN,BKN,0.00,WeatherDisplay:10.37,2013-04-08 02:00:00,
2013-04-07 22:05:00,67.6,59.4,30.10,ENE,70,2.0,3.0,75,0.00,SCT,SCT,0.00,WeatherDisplay:10.37,2013-04-08 02:05:00,
2013-04-07 22:10:00,67.3,59.1,30.10,East,80,1.0,2.0,75,0.00,SCT,SCT,0.00,WeatherDisplay:10.37,2013-04-08 02:10:00,
2013-04-07 22:15:00,67.3,59.5,30.11,East,84,1.0,2.0,76,0.00,SCT,SCT,0.00,WeatherDisplay:10.37,2013-04-08 02:15:00,
2013-04-07 22:20:00,67.1,59.6,30.10,East,87,2.0,3.0,77,0.00,SCT,SCT,0.00,WeatherDisplay:10.37,2013-04-08 02:20:00,
2013-04-07 22:30:00,66.8,59.4,30.10,East,88,2.0,3.0,77,0.00,SCT,SCT,0.00,WeatherDisplay:10.37,2013-04-08 02:30:00,
2013-04-07 22:35:00,66.7,59.3,30.10,East,84,1.0,3.0,77,0.00,SCT,SCT,0.00,WeatherDisplay:10.37,2013-04-08 02:35:00,
2013-04-07 22:41:00,66.6,59.1,30.11,East,83,2.0,2.0,77,0.00,SCT,SCT,0.00,WeatherDisplay:10.37,2013-04-08 02:41:00,
2013-04-07 22:50:00,66.2,59.1,30.11,ENE,74,1.0,2.0,78,0.00,SCT,SCT,0.00,WeatherDisplay:10.37,2013-04-08 02:50:00,
2013-04-07 23:00:00,65.8,59.1,30.10,ENE,76,1.0,2.0,79,0.00,SCT,SCT,0.00,WeatherDisplay:10.37,2013-04-08 03:00:00,
2013-04-07 23:05:00,65.8,59.1,30.10,ENE,70,2.0,2.0,79,0.00,CLR,CLR,0.00,WeatherDisplay:10.37,2013-04-08 03:05:00,
2013-04-07 23:10:00,65.7,59.3,30.11,ENE,62,1.0,2.0,80,0.00,CLR,CLR,0.00,WeatherDisplay:10.37,2013-04-08 03:10:00,
2013-04-07 23:20:00,65.5,59.1,30.10,ENE,62,1.0,2.0,80,0.00,CLR,CLR,0.00,WeatherDisplay:10.37,2013-04-08 03:20:00,
2013-04-07 23:25:00,65.3,59.0,30.10,ENE,62,2.0,2.0,80,0.00,CLR,CLR,0.00,WeatherDisplay:10.37,2013-04-08 03:25:00,
2013-04-07 23:40:00,65.0,59.0,30.10,ENE,74,2.0,2.0,81,0.00,CLR,CLR,0.00,WeatherDisplay:10.37,2013-04-08 03:40:00,
2013-04-07 23:50:00,64.8,59.2,30.11,ENE,66,1.0,3.0,82,0.00,CLR,CLR,0.00,WeatherDisplay:10.37,2013-04-08 03:50:00,